Time;durP1;ratioP1;P1;durP2;ratioP2;P2;SDS_P1;SDS_P2;PMS_P1;PMS_P2;Temp;Humidity;BMP_temperature;BMP_pressure;BME280_temperature;BME280_humidity;BME280_pressure;Samples;Min_cycle;Max_cycle;Signal;HPM_P1;HPM_P2
2023/02/15 00:00:30;;;;;;;2.00;1.00;;;;;;;5.94;53.26;102462.42;107019;1270;25408;-58
2023/02/15 00:02:58;;;;;;;1.10;0.90;;;;;;;5.90;53.37;102469.73;106402;1271;1002821;-58
2023/02/15 00:05:29;;;;;;;1.30;1.10;;;;;;;5.87;53.77;102467.25;106094;1270;1003029;-58
2023/02/15 00:07:57;;;;;;;1.30;1.10;;;;;;;5.87;54.12;102468.27;107090;1268;22524;-58
2023/02/15 00:10:26;;;;;;;3.00;1.00;;;;;;;5.83;54.39;102469.89;107084;1270;22628;-58
2023/02/15 00:12:55;;;;;;;1.80;1.10;;;;;;;5.79;54.44;102471.50;107086;1270;25346;-58
2023/02/15 00:15:25;;;;;;;1.40;1.20;;;;;;;5.74;54.41;102467.73;106842;1269;25341;-58
2023/02/15 00:17:54;;;;;;;1.40;1.00;;;;;;;5.70;54.56;102469.89;107038;1270;25423;-58
2023/02/15 00:20:23;;;;;;;1.00;0.90;;;;;;;5.66;54.71;102467.05;107092;1270;25453;-58
2023/02/15 00:22:51;;;;;;;1.60;1.10;;;;;;;5.66;54.78;102469.45;106295;1268;1003057;-58
2023/02/15 00:25:20;;;;;;;1.70;1.20;;;;;;;5.69;55.08;102468.31;106772;1267;25372;-58
2023/02/15 00:27:49;;;;;;;2.40;1.20;;;;;;;5.71;55.47;102471.82;107033;1275;25350;-58
2023/02/15 00:30:18;;;;;;;2.20;1.40;;;;;;;5.67;55.61;102475.33;106838;1270;25337;-58
2023/02/15 00:32:48;;;;;;;2.50;1.20;;;;;;;5.62;55.82;102473.13;107060;1272;22517;-58
2023/02/15 00:35:17;;;;;;;2.20;1.50;;;;;;;5.56;56.03;102472.45;107009;1269;22638;-57
2023/02/15 00:37:46;;;;;;;3.60;1.90;;;;;;;5.50;56.20;102477.80;106821;1256;23904;-57
2023/02/15 00:40:15;;;;;;;2.10;1.30;;;;;;;5.48;56.34;102476.04;106634;1270;25307;-57
2023/02/15 00:42:43;;;;;;;2.70;1.40;;;;;;;5.49;56.40;102477.77;105818;1275;1002939;-58
2023/02/15 00:45:12;;;;;;;4.00;1.60;;;;;;;5.48;56.14;102478.98;106776;1269;25369;-59
2023/02/15 00:47:41;;;;;;;2.60;1.80;;;;;;;5.45;56.29;102481.11;106029;1272;1003074;-57
2023/02/15 00:50:09;;;;;;;3.70;1.80;;;;;;;5.43;56.22;102485.17;105883;1264;1003445;-57
2023/02/15 00:52:38;;;;;;;3.40;1.60;;;;;;;5.39;56.36;102483.18;106921;1269;25352;-58
2023/02/15 00:55:07;;;;;;;2.00;1.60;;;;;;;5.36;56.50;102485.16;107069;1268;23235;-58
2023/02/15 00:57:35;;;;;;;1.90;1.50;;;;;;;5.36;56.44;102486.17;105920;1275;1003614;-58
2023/02/15 01:00:08;;;;;;;3.20;1.80;;;;;;;5.35;56.36;102489.78;106770;1275;25362;-58
2023/02/15 01:02:37;;;;;;;2.60;1.70;;;;;;;5.34;56.31;102484.07;106982;1272;22528;-58
2023/02/15 01:05:06;;;;;;;3.10;2.00;;;;;;;5.32;56.34;102485.41;106752;1270;25338;-58
2023/02/15 01:07:34;;;;;;;2.90;1.80;;;;;;;5.29;56.44;102488.59;107020;1270;25347;-58
2023/02/15 01:10:05;;;;;;;2.70;1.70;;;;;;;5.27;56.51;102489.55;107117;1270;26704;-58
2023/02/15 01:12:37;;;;;;;4.70;2.00;;;;;;;5.24;56.64;102490.84;106902;1270;25335;-58
2023/02/15 01:15:08;;;;;;;3.40;1.40;;;;;;;5.20;56.79;102490.75;107099;1270;25344;-58
2023/02/15 01:17:37;;;;;;;2.70;1.40;;;;;;;5.18;56.89;102492.91;106253;1272;1002972;-58
2023/02/15 01:20:06;;;;;;;2.70;1.70;;;;;;;5.16;56.73;102494.25;107136;1270;25433;-58
2023/02/15 01:22:35;;;;;;;3.80;1.50;;;;;;;5.15;56.80;102492.32;106246;1268;1003539;-58
2023/02/15 01:25:05;;;;;;;1.60;1.20;;;;;;;5.17;56.69;102491.17;106114;1273;1003723;-58
2023/02/15 01:27:34;;;;;;;2.50;1.30;;;;;;;5.17;56.60;102487.40;106983;1272;22534;-58
2023/02/15 01:30:08;;;;;;;2.60;1.20;;;;;;;5.18;56.42;102495.14;107049;1270;25513;-59
2023/02/15 01:32:37;;;;;;;1.70;1.30;;;;;;;5.16;56.11;102490.80;106844;1270;22643;-58
2023/02/15 01:35:10;;;;;;;1.60;1.30;;;;;;;5.14;55.89;102493.84;106857;1272;25325;-58
2023/02/15 01:37:39;;;;;;;2.30;1.50;;;;;;;5.11;55.75;102492.21;106755;1275;24206;-58
2023/02/15 01:40:12;;;;;;;2.40;1.20;;;;;;;5.09;55.70;102493.52;107109;1269;24331;-59
2023/02/15 01:42:40;;;;;;;2.80;1.50;;;;;;;5.08;55.41;102493.34;107044;1272;22527;-58
2023/02/15 01:45:24;;;;;;;2.50;1.50;;;;;;;5.09;55.24;102498.68;106339;1268;1003262;-58
2023/02/15 01:47:58;;;;;;;1.70;1.10;;;;;;;5.08;55.01;102499.52;106888;1270;22543;-58
2023/02/15 01:50:38;;;;;;;2.60;1.90;;;;;;;5.09;55.08;102501.10;106749;1275;25425;-58
2023/02/15 01:53:20;;;;;;;2.00;1.20;;;;;;;5.09;54.91;102506.60;107061;1267;22641;-57
2023/02/15 01:55:55;;;;;;;2.30;1.40;;;;;;;5.06;54.81;102509.61;107158;1263;25328;-58
2023/02/15 01:58:25;;;;;;;2.30;1.20;;;;;;;5.02;54.86;102510.70;107014;1269;25369;-57
2023/02/15 02:00:54;;;;;;;2.20;1.40;;;;;;;4.99;55.40;102516.10;106819;1269;23138;-57
2023/02/15 02:03:47;;;;;;;1.90;1.00;;;;;;;4.95;55.54;102518.94;107120;1269;24272;-58
2023/02/15 02:06:16;;;;;;;4.20;1.30;;;;;;;4.95;55.60;102520.98;107144;1269;22524;-58
2023/02/15 02:08:45;;;;;;;2.20;1.20;;;;;;;4.92;55.71;102519.02;107136;1268;23893;-58
2023/02/15 02:11:13;;;;;;;3.90;1.50;;;;;;;4.89;55.65;102522.19;106094;1270;1002834;-58
2023/02/15 02:13:43;;;;;;;1.80;1.00;;;;;;;4.87;55.89;102526.08;106321;1269;1003516;-58
2023/02/15 02:16:24;;;;;;;2.60;1.60;;;;;;;4.84;55.91;102527.04;106026;1268;1003048;-58
2023/02/15 02:19:30;;;;;;;1.20;1.00;;;;;;;4.81;55.73;102529.70;106817;1270;25415;-58
2023/02/15 02:22:04;;;;;;;2.60;1.30;;;;;;;4.80;55.62;102529.33;106295;1269;1003693;-58
2023/02/15 02:25:20;;;;;;;1.80;1.20;;;;;;;4.80;55.32;102530.35;106842;1272;25372;-58
2023/02/15 02:27:56;;;;;;;1.30;1.00;;;;;;;4.81;55.15;102532.95;106727;1274;25382;-58
2023/02/15 02:30:45;;;;;;;2.00;1.00;;;;;;;4.80;54.98;102538.42;106405;1280;25536;-58
2023/02/15 02:33:43;;;;;;;1.70;1.10;;;;;;;4.81;54.96;102539.32;106602;1274;22593;-57
2023/02/15 02:36:19;;;;;;;1.60;1.20;;;;;;;4.80;54.96;102541.88;106666;1272;25488;-57
2023/02/15 02:39:08;;;;;;;2.50;1.40;;;;;;;4.78;54.91;102538.53;106642;1272;24035;-57
2023/02/15 02:41:52;;;;;;;1.80;0.90;;;;;;;4.77;55.02;102540.73;106497;1266;25335;-57
2023/02/15 02:44:43;;;;;;;2.40;1.30;;;;;;;4.77;54.85;102543.66;106341;1272;25456;-57
2023/02/15 02:47:28;;;;;;;2.90;1.50;;;;;;;4.77;54.73;102546.27;106319;1273;23139;-58
2023/02/15 02:50:22;;;;;;;1.40;1.20;;;;;;;4.78;54.59;102550.73;105682;1273;1003364;-58
2023/02/15 02:52:52;;;;;;;3.80;1.60;;;;;;;4.79;54.53;102557.15;105406;1280;1003394;-57
2023/02/15 02:55:44;;;;;;;3.10;1.40;;;;;;;4.79;54.49;102559.55;105580;1276;1002496;-58
2023/02/15 02:58:12;;;;;;;2.40;1.20;;;;;;;4.77;54.55;102562.25;106028;1275;25564;-57
2023/02/15 03:00:57;;;;;;;1.70;1.30;;;;;;;4.74;54.60;102565.23;106953;1270;25344;-58
2023/02/15 03:03:58;;;;;;;1.60;1.20;;;;;;;4.73;54.79;102566.56;107011;1270;25394;-58
2023/02/15 03:06:40;;;;;;;1.40;1.30;;;;;;;4.71;54.79;102567.39;106341;1270;1003584;-58
2023/02/15 03:09:21;;;;;;;1.90;1.30;;;;;;;4.72;54.88;102572.73;107062;1269;25497;-58
2023/02/15 03:11:50;;;;;;;2.90;1.20;;;;;;;4.72;54.93;102574.28;107108;1268;22524;-58
2023/02/15 03:14:20;;;;;;;2.20;1.30;;;;;;;4.69;54.91;102576.78;106902;1273;24318;-58
2023/02/15 03:16:50;;;;;;;3.10;1.30;;;;;;;4.66;54.88;102582.33;106209;1269;1003648;-58
2023/02/15 03:19:22;;;;;;;1.70;1.30;;;;;;;4.61;54.58;102583.56;107066;1269;25500;-58
2023/02/15 03:22:03;;;;;;;2.90;1.70;;;;;;;4.57;54.53;102584.27;107049;1270;22537;-57
2023/02/15 03:24:44;;;;;;;1.70;1.40;;;;;;;4.52;54.30;102587.77;107012;1269;22954;-58
2023/02/15 03:27:19;;;;;;;3.30;1.50;;;;;;;4.51;54.12;102586.16;106807;1270;22668;-58
2023/02/15 03:29:52;;;;;;;2.40;1.50;;;;;;;4.49;54.03;102581.80;106307;1270;1003719;-58
2023/02/15 03:32:20;;;;;;;2.80;1.50;;;;;;;4.47;54.08;102589.29;107087;1270;22578;-58
2023/02/15 03:34:50;;;;;;;2.70;1.70;;;;;;;4.43;53.74;102590.21;106058;1272;1003678;-58
2023/02/15 03:37:57;;;;;;;3.80;1.80;;;;;;;4.41;53.73;102587.54;106268;1269;1002300;-59
2023/02/15 03:43:35;;;;;;;2.70;1.40;;;;;;;4.37;54.45;102590.17;106259;1279;25372;-58
2023/02/15 03:46:40;;;;;;;3.60;1.40;;;;;;;4.37;54.66;102589.48;106682;1273;25443;-59
2023/02/15 03:49:21;;;;;;;2.90;1.20;;;;;;;4.38;54.62;102591.76;106292;1279;23881;-59
2023/02/15 03:51:50;;;;;;;1.30;1.00;;;;;;;4.38;54.70;102592.78;106329;1279;24127;-58
2023/02/15 03:54:43;;;;;;;2.40;1.20;;;;;;;4.37;54.92;102599.09;105277;1281;1003580;-58
2023/02/15 04:03:19;;;;;;;2.10;1.30;;;;;;;4.35;54.89;102612.79;106075;1282;24292;-59
2023/02/15 04:05:54;;;;;;;3.20;1.40;;;;;;;4.33;54.85;102614.78;106256;1280;25400;-59
2023/02/15 04:10:51;;;;;;;3.60;1.40;;;;;;;4.33;54.81;102618.03;106349;1281;25361;-58
2023/02/15 04:11:11;;;;;;;3.80;1.30;;;;;;;4.31;54.89;102619.17;105624;1276;1002973;-59
2023/02/15 04:13:39;;;;;;;2.10;1.30;;;;;;;4.24;55.01;102621.85;105598;1262;1003326;-58
2023/02/15 04:16:08;;;;;;;1.90;1.10;;;;;;;4.22;55.12;102618.38;106573;1276;25386;-59
2023/02/15 04:27:05;;;;;;;3.50;1.60;;;;;;;4.22;54.92;102633.13;106091;1271;1003360;-59
2023/02/15 04:29:34;;;;;;;1.90;1.50;;;;;;;4.19;54.94;102639.73;107126;1263;22533;-59
2023/02/15 04:32:03;;;;;;;2.70;1.50;;;;;;;4.18;55.11;102643.98;107034;1271;25341;-58
2023/02/15 04:34:31;;;;;;;2.10;1.60;;;;;;;4.14;55.18;102649.36;106867;1270;25488;-59
2023/02/15 04:37:00;;;;;;;2.40;1.60;;;;;;;4.13;55.45;102656.52;106087;1269;1014997;-58
2023/02/15 04:42:53;;;;;;;2.50;1.70;;;;;;;4.14;55.05;102664.98;104212;1299;545007;-57
2023/02/15 04:45:21;;;;;;;1.90;1.70;;;;;;;4.11;55.21;102664.71;106001;1283;25397;-57
2023/02/15 04:47:49;;;;;;;3.00;2.00;;;;;;;4.13;55.18;102666.48;105939;1282;25421;-58
2023/02/15 04:50:18;;;;;;;4.60;2.00;;;;;;;4.12;55.35;102675.39;105873;1283;25868;-58
2023/02/15 04:52:47;;;;;;;2.40;1.70;;;;;;;4.11;55.49;102676.88;105853;1288;25430;-59
2023/02/15 04:55:16;;;;;;;4.70;2.10;;;;;;;4.09;55.45;102680.63;105275;1282;1003076;-58
2023/02/15 04:57:46;;;;;;;1.80;1.60;;;;;;;4.08;55.38;102687.45;106051;1280;207571;-58
2023/02/15 05:00:14;;;;;;;2.50;2.00;;;;;;;4.08;55.35;102690.53;105496;1286;1003157;-57
2023/02/15 05:02:43;;;;;;;3.20;1.90;;;;;;;4.08;55.19;102697.06;106341;1283;25387;-58
2023/02/15 05:05:12;;;;;;;3.90;1.90;;;;;;;4.08;55.00;102700.15;105630;1279;1003094;-58
2023/02/15 05:07:41;;;;;;;3.20;1.60;;;;;;;4.08;54.56;102700.66;106169;1282;24305;-58
2023/02/15 05:10:09;;;;;;;2.40;1.60;;;;;;;4.09;54.49;102710.67;106263;1280;25427;-57
2023/02/15 05:12:39;;;;;;;2.60;1.60;;;;;;;4.09;54.32;102708.76;106328;1276;25340;-58
2023/02/15 05:15:08;;;;;;;2.90;1.40;;;;;;;4.07;54.28;102707.83;106383;1276;25485;-58
2023/02/15 05:17:37;;;;;;;2.00;1.20;;;;;;;4.04;54.16;102707.91;105545;1277;1003152;-58
2023/02/15 05:20:07;;;;;;;4.40;2.00;;;;;;;4.01;54.11;102704.55;106372;1276;24490;-57
2023/02/15 05:22:35;;;;;;;5.30;2.10;;;;;;;3.98;54.10;102705.29;106689;1277;25345;-57
2023/02/15 05:30:39;;;;;;;4.70;2.20;;;;;;;3.98;54.96;102703.56;106759;1272;25373;-58
2023/02/15 05:33:08;;;;;;;2.70;2.00;;;;;;;4.01;55.12;102701.96;105877;1274;1003100;-58
2023/02/15 05:35:36;;;;;;;4.40;2.40;;;;;;;4.05;55.22;102706.55;106375;1278;25435;-58
2023/02/15 05:38:05;;;;;;;2.10;1.60;;;;;;;4.08;55.17;102710.60;106681;1273;25382;-58
2023/02/15 05:40:34;;;;;;;4.10;1.90;;;;;;;4.10;55.19;102713.77;106689;1273;25333;-58
2023/02/15 05:43:02;;;;;;;4.10;2.10;;;;;;;4.12;55.39;102714.02;106426;1275;24314;-58
2023/02/15 05:45:31;;;;;;;4.00;2.40;;;;;;;4.16;55.51;102720.87;106673;1273;25483;-58
2023/02/15 05:48:00;;;;;;;3.70;2.10;;;;;;;4.21;55.85;102724.46;106692;1272;25470;-57
2023/02/15 05:50:29;;;;;;;4.60;2.30;;;;;;;4.26;55.46;102725.18;106783;1272;25383;-57
2023/02/15 05:53:05;;;;;;;3.20;2.20;;;;;;;4.30;55.27;102720.67;105955;1273;1003623;-58
2023/02/15 05:55:34;;;;;;;3.40;2.00;;;;;;;4.33;55.42;102722.33;105998;1276;1002989;-58
2023/02/15 05:58:02;;;;;;;2.70;2.10;;;;;;;4.36;55.54;102729.14;106732;1272;25365;-58
2023/02/15 06:00:32;;;;;;;3.90;2.10;;;;;;;4.39;55.19;102716.52;105989;1277;1002922;-58
2023/02/15 06:03:00;;;;;;;3.30;2.00;;;;;;;4.41;55.01;102719.68;106579;1275;22916;-58
2023/02/15 06:05:29;;;;;;;2.80;1.50;;;;;;;4.41;54.90;102717.47;106631;1273;25402;-57
2023/02/15 06:07:57;;;;;;;2.20;1.40;;;;;;;4.42;55.07;102718.33;106710;1272;24249;-57
2023/02/15 06:10:26;;;;;;;3.60;1.50;;;;;;;4.43;55.31;102717.35;105971;1274;1003297;-57
2023/02/15 06:12:55;;;;;;;1.70;1.30;;;;;;;4.48;55.43;102718.03;106740;1272;25395;-57
2023/02/15 06:15:24;;;;;;;1.70;1.20;;;;;;;4.52;55.51;102719.39;106036;1273;1002898;-57
2023/02/15 06:17:52;;;;;;;2.10;1.50;;;;;;;4.50;55.34;102717.10;106720;1271;25424;-58
2023/02/15 06:20:22;;;;;;;2.40;1.60;;;;;;;4.49;55.19;102718.75;105926;1273;1003034;-59
2023/02/15 06:22:51;;;;;;;1.90;1.30;;;;;;;4.50;55.29;102727.59;106563;1274;22661;-57
2023/02/15 06:25:19;;;;;;;3.10;1.70;;;;;;;4.52;55.38;102729.88;106674;1273;25432;-58
2023/02/15 06:27:49;;;;;;;2.90;1.80;;;;;;;4.53;54.93;102722.50;106732;1274;25536;-57
2023/02/15 06:30:18;;;;;;;3.70;2.20;;;;;;;4.55;54.76;102735.50;105954;1273;1002662;-58
2023/02/15 06:32:46;;;;;;;5.00;2.60;;;;;;;4.60;54.48;102723.10;106709;1272;24403;-58
2023/02/15 06:35:15;;;;;;;3.80;2.40;;;;;;;4.65;54.11;102709.55;106724;1272;25347;-57
2023/02/15 06:37:45;;;;;;;7.80;2.30;;;;;;;4.70;53.90;102710.90;105915;1273;1003206;-57
2023/02/15 06:40:14;;;;;;;3.00;2.10;;;;;;;4.76;53.78;102721.75;106526;1257;24443;-58
2023/02/15 06:42:43;;;;;;;2.60;1.90;;;;;;;4.81;53.65;102735.66;105963;1272;1002857;-58
2023/02/15 06:45:11;;;;;;;3.50;2.40;;;;;;;4.83;53.58;102742.26;105590;1273;1003559;-57
2023/02/15 06:47:39;;;;;;;3.70;2.20;;;;;;;4.84;53.35;102740.23;106697;1276;25310;-59
2023/02/15 06:50:09;;;;;;;5.80;2.80;;;;;;;4.85;53.32;102741.14;106704;1273;25368;-58
2023/02/15 06:52:37;;;;;;;4.40;2.30;;;;;;;4.85;53.36;102739.05;105884;1273;1002693;-58
2023/02/15 06:55:07;;;;;;;3.60;2.30;;;;;;;4.85;53.40;102731.69;106437;1273;25455;-58
2023/02/15 06:57:35;;;;;;;4.20;2.40;;;;;;;4.89;53.42;102730.61;106288;1276;22559;-58
2023/02/15 07:00:04;;;;;;;3.10;2.40;;;;;;;4.95;53.39;102728.42;106299;1273;25361;-57
2023/02/15 07:02:33;;;;;;;5.30;2.50;;;;;;;5.02;53.42;102728.61;105537;1273;1002959;-58
2023/02/15 07:05:04;;;;;;;4.20;2.40;;;;;;;5.05;53.40;102725.63;105549;1276;1003111;-58
2023/02/15 07:07:33;;;;;;;4.50;2.20;;;;;;;5.09;53.52;102726.77;106237;1273;23486;-58
2023/02/15 07:10:03;;;;;;;3.40;2.30;;;;;;;5.12;53.62;102724.13;106077;1271;24878;-58
2023/02/15 07:12:41;;;;;;;2.80;1.90;;;;;;;5.18;53.85;102723.80;106150;1275;22656;-58
2023/02/15 07:15:15;;;;;;;4.20;2.10;;;;;;;5.26;53.94;102724.72;106178;1272;24581;-58
2023/02/15 07:17:44;;;;;;;4.80;2.30;;;;;;;5.34;53.81;102724.64;106501;1275;22618;-58
2023/02/15 07:20:16;;;;;;;3.00;2.50;;;;;;;5.41;53.91;102725.40;106478;1273;25850;-58
2023/02/15 07:22:45;;;;;;;5.20;2.70;;;;;;;5.45;53.94;102726.03;106700;1273;22532;-58
2023/02/15 07:25:14;;;;;;;5.00;3.00;;;;;;;5.48;54.44;102724.07;106752;1273;22539;-58
2023/02/15 07:27:43;;;;;;;2.90;2.30;;;;;;;5.50;54.48;102720.84;106617;1274;25369;-58
2023/02/15 07:30:14;;;;;;;6.40;2.90;;;;;;;5.51;54.77;102726.55;106613;1272;22642;-58
2023/02/15 07:35:33;;;;;;;4.80;3.40;;;;;;;5.54;55.26;102726.80;106391;1276;25407;-57
2023/02/15 07:38:01;;;;;;;7.70;4.10;;;;;;;5.55;55.72;102729.08;106725;1272;22544;-58
2023/02/15 07:40:45;;;;;;;5.50;3.70;;;;;;;5.60;55.86;102732.31;103626;1299;545012;-58
2023/02/15 07:43:14;;;;;;;7.00;3.90;;;;;;;5.61;56.08;102727.73;105970;1281;24289;-58
2023/02/15 07:45:42;;;;;;;5.70;4.00;;;;;;;5.65;56.35;102733.67;105188;1282;1003084;-58
2023/02/15 07:48:11;;;;;;;7.50;3.90;;;;;;;5.68;56.31;102729.66;105884;1285;25546;-58
2023/02/15 07:50:40;;;;;;;6.30;3.80;;;;;;;5.72;56.33;102726.84;105928;1282;25450;-58
2023/02/15 07:53:10;;;;;;;6.70;4.20;;;;;;;5.77;56.40;102731.29;105978;1282;25434;-57
2023/02/15 07:55:39;;;;;;;6.20;4.10;;;;;;;5.80;56.59;102731.20;106109;1282;25376;-58
2023/02/15 07:58:10;;;;;;;6.70;5.00;;;;;;;5.84;56.66;102734.61;106221;1279;25360;-58
2023/02/15 08:00:57;;;;;;;6.60;4.70;;;;;;;5.89;56.69;102732.55;106309;1280;25366;-58
2023/02/15 08:03:28;;;;;;;7.40;4.40;;;;;;;5.97;56.69;102734.14;106256;1280;25379;-58
2023/02/15 08:05:58;;;;;;;7.00;4.20;;;;;;;6.01;56.67;102738.40;105786;1287;25430;-58
2023/02/15 08:08:30;;;;;;;7.60;4.30;;;;;;;6.03;56.63;102739.68;106333;1280;25444;-59
2023/02/15 08:14:05;;;;;;;6.90;4.30;;;;;;;6.09;56.82;102736.21;106251;1281;25389;-57
2023/02/15 08:16:37;;;;;;;9.10;5.20;;;;;;;6.12;56.74;102740.44;105448;1279;1003410;-57
2023/02/15 08:19:10;;;;;;;6.60;4.90;;;;;;;6.14;56.69;102737.39;106028;1270;1003401;-58
2023/02/15 08:21:41;;;;;;;8.00;5.10;;;;;;;6.18;56.72;102737.84;106796;1271;25485;-58
2023/02/15 08:24:11;;;;;;;8.90;5.70;;;;;;;6.22;56.58;102742.45;106418;1279;25355;-58
2023/02/15 08:26:40;;;;;;;8.40;5.10;;;;;;;6.26;56.46;102740.31;106785;1272;25430;-58
2023/02/15 08:29:09;;;;;;;7.50;4.40;;;;;;;6.29;56.14;102736.44;106544;1278;24210;-58
2023/02/15 08:31:40;;;;;;;7.20;4.40;;;;;;;6.32;56.08;102735.48;106831;1272;25353;-58
2023/02/15 08:34:11;;;;;;;4.90;4.00;;;;;;;6.39;56.07;102736.20;106781;1275;25436;-58
2023/02/15 08:36:39;;;;;;;6.00;3.70;;;;;;;6.47;55.71;102736.23;106708;1275;25376;-58
2023/02/15 08:39:07;;;;;;;5.10;3.60;;;;;;;6.51;55.45;102737.20;106001;1272;1003181;-57
2023/02/15 08:41:37;;;;;;;6.10;3.70;;;;;;;6.55;55.24;102735.06;106815;1272;25375;-57
2023/02/15 08:44:06;;;;;;;6.60;4.00;;;;;;;6.57;55.00;102732.01;106763;1270;24254;-58
2023/02/15 08:46:38;;;;;;;5.10;3.80;;;;;;;6.59;55.05;102734.48;105964;1275;1003560;-58
2023/02/15 08:49:06;;;;;;;5.50;4.10;;;;;;;6.62;54.86;102731.77;106720;1271;22543;-58
2023/02/15 08:51:37;;;;;;;6.30;4.00;;;;;;;6.69;54.59;102730.77;106496;1273;22541;-58
2023/02/15 08:54:09;;;;;;;6.30;4.30;;;;;;;6.73;54.52;102726.91;106485;1271;25355;-58
2023/02/15 08:56:39;;;;;;;5.80;4.10;;;;;;;6.79;54.32;102721.02;106516;1271;24480;-59
2023/02/15 08:59:16;;;;;;;7.00;4.00;;;;;;;6.87;54.01;102722.59;106236;1273;23843;-59
2023/02/15 09:01:45;;;;;;;6.40;3.80;;;;;;;6.92;53.78;102721.17;105747;1272;1002926;-58
2023/02/15 09:04:15;;;;;;;7.20;3.40;;;;;;;6.97;53.61;102724.58;106270;1273;25443;-58
2023/02/15 09:06:45;;;;;;;5.10;3.90;;;;;;;6.99;53.44;102725.83;106555;1273;22530;-58
2023/02/15 09:09:22;;;;;;;5.70;3.80;;;;;;;6.98;53.05;102723.75;106648;1259;25370;-59
2023/02/15 09:11:51;;;;;;;5.40;3.90;;;;;;;6.97;52.97;102722.14;106468;1273;22550;-58
2023/02/15 09:14:26;;;;;;;5.90;3.60;;;;;;;6.97;52.67;102719.39;106428;1272;22527;-58
2023/02/15 09:16:55;;;;;;;4.50;3.00;;;;;;;6.97;52.49;102714.04;105780;1272;1003716;-58
2023/02/15 09:19:25;;;;;;;6.50;3.50;;;;;;;6.96;52.32;102714.19;106677;1274;25404;-59
2023/02/15 09:21:58;;;;;;;3.30;2.80;;;;;;;6.95;52.36;102718.33;106728;1272;23899;-58
2023/02/15 09:24:26;;;;;;;3.80;3.20;;;;;;;6.96;52.08;102717.82;106070;1272;1003664;-57
2023/02/15 09:26:59;;;;;;;8.30;3.30;;;;;;;6.96;51.47;102721.27;106026;1272;1003524;-57
2023/02/15 09:29:28;;;;;;;5.50;3.20;;;;;;;6.96;51.16;102712.81;106743;1270;25354;-58
2023/02/15 09:31:57;;;;;;;4.30;2.50;;;;;;;6.96;51.10;102715.74;106827;1270;22768;-58
2023/02/15 09:34:25;;;;;;;4.00;2.60;;;;;;;6.98;50.80;102714.92;106046;1270;1002645;-58
2023/02/15 09:36:54;;;;;;;4.80;2.80;;;;;;;6.99;50.85;102711.35;106729;1273;25350;-58
2023/02/15 09:39:27;;;;;;;5.10;3.30;;;;;;;7.02;50.91;102712.09;106380;1279;22544;-58
2023/02/15 09:42:32;;;;;;;4.50;3.20;;;;;;;7.02;51.05;102711.93;106708;1272;25376;-58
2023/02/15 09:45:07;;;;;;;6.40;3.70;;;;;;;7.06;51.32;102709.08;106700;1271;25382;-59
2023/02/15 09:48:03;;;;;;;4.30;3.20;;;;;;;7.10;51.55;102708.69;106512;1278;24285;-58
2023/02/15 09:50:52;;;;;;;4.40;3.30;;;;;;;7.16;51.53;102705.86;106064;1271;1003054;-59
2023/02/15 09:53:39;;;;;;;5.10;3.20;;;;;;;7.21;51.65;102699.42;106350;1278;22654;-59
2023/02/15 09:56:31;;;;;;;4.20;3.30;;;;;;;7.23;51.79;102701.72;105952;1272;1004102;-59
2023/02/15 09:59:24;;;;;;;4.90;3.10;;;;;;;7.25;51.53;102700.55;106570;1278;22737;-58
2023/02/15 10:02:14;;;;;;;6.90;3.50;;;;;;;7.25;51.05;102704.34;105988;1272;1003520;-58
2023/02/15 10:04:52;;;;;;;6.10;3.20;;;;;;;7.23;51.05;102707.94;106054;1271;1003655;-59
2023/02/15 10:07:27;;;;;;;6.00;3.30;;;;;;;7.22;51.24;102706.53;106692;1272;25425;-58
2023/02/15 10:10:34;;;;;;;5.10;3.20;;;;;;;7.20;51.06;102701.30;106053;1271;1003457;-58
2023/02/15 10:13:26;;;;;;;5.80;3.70;;;;;;;7.18;50.90;102700.22;106246;1278;25367;-59
2023/02/15 10:16:17;;;;;;;5.20;3.20;;;;;;;7.17;51.17;102698.65;106331;1278;22540;-59
2023/02/15 10:19:11;;;;;;;5.60;4.20;;;;;;;7.17;51.26;102694.85;106266;1278;22501;-58
2023/02/15 10:22:04;;;;;;;6.50;4.60;;;;;;;7.14;51.19;102697.21;105116;1287;1003027;-58
2023/02/15 10:24:43;;;;;;;5.60;3.90;;;;;;;7.13;51.15;102699.59;105081;1284;1003096;-58
2023/02/15 10:27:19;;;;;;;4.90;3.80;;;;;;;7.10;51.08;102697.11;105665;1287;25364;-58
2023/02/15 10:29:56;;;;;;;;;;;;;;;7.08;51.02;102701.55;105917;1283;25549;-58
2023/02/15 10:32:25;;;;;;;7.20;3.80;;;;;;;7.07;50.90;102695.96;105705;1287;22640;-58
2023/02/15 10:35:00;;;;;;;8.80;4.30;;;;;;;7.05;50.72;102697.14;105637;1287;25449;-57
2023/02/15 10:37:35;;;;;;;6.90;5.00;;;;;;;7.03;50.93;102697.98;105774;1284;22661;-58
2023/02/15 10:40:59;;;;;;;5.80;3.90;;;;;;;7.01;50.88;102698.60;105723;1286;25377;-58
2023/02/15 10:43:47;;;;;;;7.90;4.00;;;;;;;7.02;51.03;102694.66;104590;1296;25371;-57
2023/02/15 10:46:46;;;;;;;4.20;3.10;;;;;;;7.06;50.73;102697.16;104846;1295;22556;-57
2023/02/15 10:49:18;;;;;;;6.90;3.30;;;;;;;7.08;50.63;102700.52;104796;1297;25062;-58
2023/02/15 10:52:00;;;;;;;6.40;4.40;;;;;;;7.07;50.62;102703.08;105022;1296;25429;-58
2023/02/15 10:54:36;;;;;;;5.60;3.90;;;;;;;7.05;50.55;102701.98;104246;1290;1003665;-57
2023/02/15 10:57:12;;;;;;;5.90;3.50;;;;;;;7.05;50.51;102695.93;104097;1293;1003017;-57
2023/02/15 10:59:59;;;;;;;7.00;3.50;;;;;;;7.03;50.53;102696.42;105311;1287;25634;-58
2023/02/15 11:02:37;;;;;;;7.50;4.20;;;;;;;7.01;50.16;102688.77;105501;1289;25316;-58
2023/02/15 11:05:32;;;;;;;6.30;4.40;;;;;;;6.98;50.14;102688.53;105516;1287;22544;-58
2023/02/15 11:08:01;;;;;;;6.30;4.40;;;;;;;6.97;50.11;102688.48;104869;1286;1003207;-57
2023/02/15 11:10:37;;;;;;;5.70;3.40;;;;;;;6.96;50.19;102688.98;105723;1289;24285;-58
2023/02/15 11:13:10;;;;;;;5.10;3.70;;;;;;;6.96;50.10;102690.20;105834;1284;22614;-58
2023/02/15 11:15:51;;;;;;;6.00;3.20;;;;;;;6.98;50.07;102691.64;105755;1284;22581;-57
2023/02/15 11:18:38;;;;;;;6.40;3.50;;;;;;;7.01;49.94;102692.04;105727;1287;25434;-57
2023/02/15 11:21:14;;;;;;;7.30;3.80;;;;;;;7.04;49.86;102694.20;105419;1270;1003332;-58
2023/02/15 11:23:44;;;;;;;7.00;3.80;;;;;;;7.04;49.86;102696.45;106045;1273;1003408;-58
2023/02/15 11:26:17;;;;;;;7.00;3.60;;;;;;;7.05;49.96;102701.12;106446;1278;24260;-58
2023/02/15 11:28:51;;;;;;;5.60;3.50;;;;;;;7.06;49.64;102702.86;106782;1272;24320;-58
2023/02/15 11:31:22;;;;;;;5.10;3.30;;;;;;;7.07;49.56;102703.23;106800;1273;22538;-58
2023/02/15 11:34:00;;;;;;;2.60;2.00;;;;;;;7.05;49.45;102708.02;106779;1272;25249;-58
2023/02/15 11:36:38;;;;;;;3.80;2.80;;;;;;;7.01;49.26;102708.63;106795;1272;24324;-58
2023/02/15 11:39:14;;;;;;;3.10;2.30;;;;;;;6.97;49.30;102709.73;106752;1257;22630;-58
2023/02/15 11:41:46;;;;;;;4.90;2.00;;;;;;;6.92;49.07;102707.01;106709;1273;22630;-58
2023/02/15 11:44:15;;;;;;;2.40;1.80;;;;;;;6.87;49.05;102709.98;106447;1271;24256;-58
2023/02/15 11:46:43;;;;;;;3.90;1.50;;;;;;;6.82;49.13;102708.33;106704;1273;23863;-58
2023/02/15 11:49:34;;;;;;;2.50;1.50;;;;;;;6.80;49.15;102701.02;106586;1275;22753;-58
2023/02/15 11:52:06;;;;;;;2.30;1.20;;;;;;;6.78;49.30;102707.36;106644;1269;25453;-58
2023/02/15 11:54:35;;;;;;;1.90;1.70;;;;;;;6.79;49.54;102707.23;106777;1264;24214;-58
2023/02/15 11:57:12;;;;;;;1.70;1.50;;;;;;;6.81;49.58;102701.23;106795;1272;22557;-58
2023/02/15 11:59:41;;;;;;;3.10;1.50;;;;;;;6.84;49.46;102697.67;106044;1272;1003094;-58
2023/02/15 12:02:19;;;;;;;1.90;1.50;;;;;;;6.86;48.96;102699.10;105742;1278;1003605;-58
2023/02/15 12:04:51;;;;;;;3.00;2.20;;;;;;;6.87;48.34;102695.48;106769;1273;22525;-58
2023/02/15 12:07:39;;;;;;;1.50;1.40;;;;;;;6.87;47.90;102699.81;106828;1274;22532;-57
2023/02/15 12:10:24;;;;;;;2.30;1.60;;;;;;;6.87;47.64;102701.20;106734;1264;25492;-57
2023/02/15 12:13:09;;;;;;;3.50;2.00;;;;;;;6.85;46.98;102702.52;106775;1273;25268;-58
2023/02/15 12:15:38;;;;;;;2.40;1.40;;;;;;;6.80;46.92;102700.52;106032;1271;1002863;-58
2023/02/15 12:18:17;;;;;;;1.70;1.20;;;;;;;6.77;47.06;102698.56;105790;1278;1003060;-57
2023/02/15 12:20:45;;;;;;;1.50;1.40;;;;;;;6.73;47.41;102696.89;106834;1272;24351;-57
2023/02/15 12:23:14;;;;;;;1.70;1.20;;;;;;;6.70;47.81;102700.44;106599;1275;25564;-57
2023/02/15 12:25:54;;;;;;;1.80;1.40;;;;;;;6.66;48.27;102702.23;105971;1272;1003596;-58